Main page
METAR-TAF:

METAR-TAF

Airports :

Tri-Township Airport

Savanna, Illinois, United States

latitude: 42-02-45N, longitude: 090-06-28W, elevation: 617 ft

Current weather observation

The report was made 32 minutes ago, at 04:15 UTC
Wind 14 mph from the South
Temperature 66°F
Humidity 94%
Pressure 30.00 in. Hg
Visibility: 10 miles
Broken clouds at a height of 12000 ft
light rain

METAR: KSFY 260415Z AUTO 17012KT 10SM -RA BKN120 19/18 A3000 RMK AO2 P0001

Time: 23:47 (04:47 UTC)


TAF: missing

Weather observations and forecasts of more than 4000 airports (METAR and TAF reports).

The available stations are represented by yellow and red dots on the map.

Hover mouse over dot to see the name of the station.

Then click to see weather observations and forecasts.

To change the map : click on the green buttons with a black cross to zoom in, on the green button with a dash to zoom out, or on the green arrows for adjacent maps.


METAR-TAF: